sensor_id;sensor_type;location;lat;lon;timestamp;temperature;humidity
60727;DHT22;46577;49.004;12.120;2022-08-19T00:01:42;23.20;99.90
60727;DHT22;46577;49.004;12.120;2022-08-19T00:04:12;23.20;99.90
60727;DHT22;46577;49.004;12.120;2022-08-19T00:06:39;23.20;99.90
60727;DHT22;46577;49.004;12.120;2022-08-19T00:09:08;23.30;99.90
60727;DHT22;46577;49.004;12.120;2022-08-19T00:11:34;23.30;99.90
60727;DHT22;46577;49.004;12.120;2022-08-19T00:14:03;23.40;99.90
60727;DHT22;46577;49.004;12.120;2022-08-19T00:16:29;23.40;99.90
60727;DHT22;46577;49.004;12.120;2022-08-19T00:18:54;23.50;99.90
60727;DHT22;46577;49.004;12.120;2022-08-19T00:21:24;23.40;99.90
60727;DHT22;46577;49.004;12.120;2022-08-19T00:23:52;23.40;99.90
60727;DHT22;46577;49.004;12.120;2022-08-19T00:26:18;23.50;99.90
60727;DHT22;46577;49.004;12.120;2022-08-19T00:28:44;23.50;99.90
60727;DHT22;46577;49.004;12.120;2022-08-19T00:31:10;23.50;99.90
60727;DHT22;46577;49.004;12.120;2022-08-19T00:33:36;23.60;99.70
60727;DHT22;46577;49.004;12.120;2022-08-19T00:36:05;23.60;99.90
60727;DHT22;46577;49.004;12.120;2022-08-19T00:38:32;23.60;99.70
60727;DHT22;46577;49.004;12.120;2022-08-19T00:40:58;23.60;99.90
60727;DHT22;46577;49.004;12.120;2022-08-19T00:43:26;23.60;99.80
60727;DHT22;46577;49.004;12.120;2022-08-19T00:45:52;23.50;99.90
60727;DHT22;46577;49.004;12.120;2022-08-19T00:48:19;23.40;99.90
60727;DHT22;46577;49.004;12.120;2022-08-19T00:50:47;23.40;99.90
60727;DHT22;46577;49.004;12.120;2022-08-19T00:53:16;23.40;99.90
60727;DHT22;46577;49.004;12.120;2022-08-19T00:55:49;23.40;99.90
60727;DHT22;46577;49.004;12.120;2022-08-19T00:58:19;23.20;99.90
60727;DHT22;46577;49.004;12.120;2022-08-19T01:00:45;23.10;99.90
60727;DHT22;46577;49.004;12.120;2022-08-19T01:03:14;23.10;99.90
60727;DHT22;46577;49.004;12.120;2022-08-19T01:05:42;23.10;99.90
60727;DHT22;46577;49.004;12.120;2022-08-19T01:08:09;23.10;99.90
60727;DHT22;46577;49.004;12.120;2022-08-19T01:10:40;23.10;99.90
60727;DHT22;46577;49.004;12.120;2022-08-19T01:13:07;23.00;99.90
60727;DHT22;46577;49.004;12.120;2022-08-19T01:15:50;23.00;99.90
60727;DHT22;46577;49.004;12.120;2022-08-19T01:18:19;23.00;99.90
60727;DHT22;46577;49.004;12.120;2022-08-19T01:20:46;22.90;99.90
60727;DHT22;46577;49.004;12.120;2022-08-19T01:23:13;22.90;99.90
60727;DHT22;46577;49.004;12.120;2022-08-19T01:25:45;22.90;99.90
60727;DHT22;46577;49.004;12.120;2022-08-19T01:28:16;22.80;99.90
60727;DHT22;46577;49.004;12.120;2022-08-19T01:30:43;22.80;99.90
60727;DHT22;46577;49.004;12.120;2022-08-19T01:33:10;22.70;99.90
60727;DHT22;46577;49.004;12.120;2022-08-19T01:35:36;22.60;99.90
60727;DHT22;46577;49.004;12.120;2022-08-19T01:38:05;22.70;99.90
60727;DHT22;46577;49.004;12.120;2022-08-19T01:40:35;22.70;99.90
60727;DHT22;46577;49.004;12.120;2022-08-19T01:43:02;22.70;99.90
60727;DHT22;46577;49.004;12.120;2022-08-19T01:45:30;22.70;99.90
60727;DHT22;46577;49.004;12.120;2022-08-19T01:47:57;22.70;99.90
60727;DHT22;46577;49.004;12.120;2022-08-19T01:50:23;22.70;99.90
60727;DHT22;46577;49.004;12.120;2022-08-19T01:52:49;22.70;99.90
60727;DHT22;46577;49.004;12.120;2022-08-19T01:55:18;22.60;99.90
60727;DHT22;46577;49.004;12.120;2022-08-19T01:57:53;22.60;99.90
60727;DHT22;46577;49.004;12.120;2022-08-19T02:00:23;22.60;99.90
60727;DHT22;46577;49.004;12.120;2022-08-19T02:02:49;22.50;99.90
60727;DHT22;46577;49.004;12.120;2022-08-19T02:05:15;22.60;99.90
60727;DHT22;46577;49.004;12.120;2022-08-19T02:07:41;22.50;99.90
60727;DHT22;46577;49.004;12.120;2022-08-19T02:10:11;22.50;99.90
60727;DHT22;46577;49.004;12.120;2022-08-19T02:12:37;22.50;99.90
60727;DHT22;46577;49.004;12.120;2022-08-19T02:15:03;22.40;99.90
60727;DHT22;46577;49.004;12.120;2022-08-19T02:17:29;22.40;99.90
60727;DHT22;46577;49.004;12.120;2022-08-19T02:19:55;22.40;99.90
60727;DHT22;46577;49.004;12.120;2022-08-19T02:22:22;22.40;99.90
60727;DHT22;46577;49.004;12.120;2022-08-19T02:24:48;22.40;99.90
60727;DHT22;46577;49.004;12.120;2022-08-19T02:27:14;22.40;99.90
60727;DHT22;46577;49.004;12.120;2022-08-19T02:29:40;22.40;99.90
60727;DHT22;46577;49.004;12.120;2022-08-19T02:32:06;22.40;99.90
60727;DHT22;46577;49.004;12.120;2022-08-19T02:34:33;22.40;99.90
60727;DHT22;46577;49.004;12.120;2022-08-19T02:36:58;22.40;99.90
60727;DHT22;46577;49.004;12.120;2022-08-19T02:39:24;22.40;99.90
60727;DHT22;46577;49.004;12.120;2022-08-19T02:41:50;22.40;99.90
60727;DHT22;46577;49.004;12.120;2022-08-19T02:44:17;22.40;99.90
60727;DHT22;46577;49.004;12.120;2022-08-19T02:46:45;22.40;99.90
60727;DHT22;46577;49.004;12.120;2022-08-19T02:49:11;22.40;99.90
60727;DHT22;46577;49.004;12.120;2022-08-19T02:51:40;22.50;99.90
60727;DHT22;46577;49.004;12.120;2022-08-19T02:54:07;22.50;99.90
60727;DHT22;46577;49.004;12.120;2022-08-19T02:56:37;22.50;99.90
60727;DHT22;46577;49.004;12.120;2022-08-19T02:59:04;22.50;99.90
60727;DHT22;46577;49.004;12.120;2022-08-19T03:01:34;22.50;99.90
60727;DHT22;46577;49.004;12.120;2022-08-19T03:04:02;22.50;99.90
60727;DHT22;46577;49.004;12.120;2022-08-19T03:06:29;22.40;99.90
60727;DHT22;46577;49.004;12.120;2022-08-19T03:08:56;22.30;99.90
60727;DHT22;46577;49.004;12.120;2022-08-19T03:11:25;22.40;99.90
60727;DHT22;46577;49.004;12.120;2022-08-19T03:13:51;22.30;99.90
60727;DHT22;46577;49.004;12.120;2022-08-19T03:16:24;22.30;99.90
60727;DHT22;46577;49.004;12.120;2022-08-19T03:18:51;22.20;99.90
60727;DHT22;46577;49.004;12.120;2022-08-19T03:21:22;22.00;99.90
60727;DHT22;46577;49.004;12.120;2022-08-19T03:23:49;22.00;99.90
60727;DHT22;46577;49.004;12.120;2022-08-19T03:26:15;22.00;99.90
60727;DHT22;46577;49.004;12.120;2022-08-19T03:28:42;22.10;99.90
60727;DHT22;46577;49.004;12.120;2022-08-19T03:31:13;22.10;99.90
60727;DHT22;46577;49.004;12.120;2022-08-19T03:33:39;22.20;99.90
60727;DHT22;46577;49.004;12.120;2022-08-19T03:36:07;22.10;99.90
60727;DHT22;46577;49.004;12.120;2022-08-19T03:38:36;22.00;99.90
60727;DHT22;46577;49.004;12.120;2022-08-19T03:41:07;22.00;99.90
60727;DHT22;46577;49.004;12.120;2022-08-19T03:43:35;22.00;99.90
60727;DHT22;46577;49.004;12.120;2022-08-19T03:46:09;22.00;99.90
60727;DHT22;46577;49.004;12.120;2022-08-19T03:48:36;22.10;99.90
60727;DHT22;46577;49.004;12.120;2022-08-19T03:51:03;22.20;99.90
60727;DHT22;46577;49.004;12.120;2022-08-19T03:53:29;22.20;99.90
60727;DHT22;46577;49.004;12.120;2022-08-19T03:55:56;22.20;99.90
60727;DHT22;46577;49.004;12.120;2022-08-19T03:58:23;22.20;99.90
60727;DHT22;46577;49.004;12.120;2022-08-19T04:00:49;22.20;99.90
60727;DHT22;46577;49.004;12.120;2022-08-19T04:03:15;22.30;99.90
60727;DHT22;46577;49.004;12.120;2022-08-19T04:05:41;22.30;99.90
60727;DHT22;46577;49.004;12.120;2022-08-19T04:08:06;22.20;99.90
60727;DHT22;46577;49.004;12.120;2022-08-19T04:10:36;22.20;99.90
60727;DHT22;46577;49.004;12.120;2022-08-19T04:13:03;22.30;99.90
60727;DHT22;46577;49.004;12.120;2022-08-19T04:15:29;22.30;99.90
60727;DHT22;46577;49.004;12.120;2022-08-19T04:17:59;22.30;99.90
60727;DHT22;46577;49.004;12.120;2022-08-19T04:20:24;22.30;99.90
60727;DHT22;46577;49.004;12.120;2022-08-19T04:22:50;22.40;99.90
60727;DHT22;46577;49.004;12.120;2022-08-19T04:25:16;22.40;99.90
60727;DHT22;46577;49.004;12.120;2022-08-19T04:27:41;22.40;99.90
60727;DHT22;46577;49.004;12.120;2022-08-19T04:30:12;22.40;99.90
60727;DHT22;46577;49.004;12.120;2022-08-19T04:32:38;22.40;99.90
60727;DHT22;46577;49.004;12.120;2022-08-19T04:35:04;22.40;99.90
60727;DHT22;46577;49.004;12.120;2022-08-19T04:37:30;22.40;99.90
60727;DHT22;46577;49.004;12.120;2022-08-19T04:39:59;22.40;99.90
60727;DHT22;46577;49.004;12.120;2022-08-19T04:42:43;22.40;99.90
60727;DHT22;46577;49.004;12.120;2022-08-19T04:45:13;22.50;99.90
60727;DHT22;46577;49.004;12.120;2022-08-19T04:47:42;22.50;99.90
60727;DHT22;46577;49.004;12.120;2022-08-19T04:50:09;22.50;99.90
60727;DHT22;46577;49.004;12.120;2022-08-19T04:52:36;22.50;99.90
60727;DHT22;46577;49.004;12.120;2022-08-19T04:55:03;22.50;99.90
60727;DHT22;46577;49.004;12.120;2022-08-19T04:57:30;22.40;99.90
60727;DHT22;46577;49.004;12.120;2022-08-19T04:59:56;22.40;99.90
60727;DHT22;46577;49.004;12.120;2022-08-19T05:02:22;22.20;99.90
60727;DHT22;46577;49.004;12.120;2022-08-19T05:04:50;22.20;99.90
60727;DHT22;46577;49.004;12.120;2022-08-19T05:07:16;22.30;99.90
60727;DHT22;46577;49.004;12.120;2022-08-19T05:09:41;22.40;99.90
60727;DHT22;46577;49.004;12.120;2022-08-19T05:12:08;22.40;99.90
60727;DHT22;46577;49.004;12.120;2022-08-19T05:14:33;22.50;99.90
60727;DHT22;46577;49.004;12.120;2022-08-19T05:17:00;22.50;99.90
60727;DHT22;46577;49.004;12.120;2022-08-19T05:19:26;22.50;99.90
60727;DHT22;46577;49.004;12.120;2022-08-19T05:22:10;22.50;99.90
60727;DHT22;46577;49.004;12.120;2022-08-19T05:24:54;22.60;99.90
60727;DHT22;46577;49.004;12.120;2022-08-19T05:27:20;22.60;99.90
60727;DHT22;46577;49.004;12.120;2022-08-19T05:29:46;22.60;99.90
60727;DHT22;46577;49.004;12.120;2022-08-19T05:32:11;22.60;99.90
60727;DHT22;46577;49.004;12.120;2022-08-19T05:34:37;22.50;99.90
60727;DHT22;46577;49.004;12.120;2022-08-19T05:37:04;22.50;99.90
60727;DHT22;46577;49.004;12.120;2022-08-19T05:39:32;22.60;99.90
60727;DHT22;46577;49.004;12.120;2022-08-19T05:42:02;22.60;99.90
60727;DHT22;46577;49.004;12.120;2022-08-19T05:44:31;22.80;99.90
60727;DHT22;46577;49.004;12.120;2022-08-19T05:46:58;22.80;99.90
60727;DHT22;46577;49.004;12.120;2022-08-19T05:49:25;22.80;99.90
60727;DHT22;46577;49.004;12.120;2022-08-19T05:51:52;22.80;99.90
60727;DHT22;46577;49.004;12.120;2022-08-19T05:54:20;22.80;99.90
60727;DHT22;46577;49.004;12.120;2022-08-19T05:56:46;22.80;99.90
60727;DHT22;46577;49.004;12.120;2022-08-19T05:59:14;22.80;99.90
60727;DHT22;46577;49.004;12.120;2022-08-19T06:01:42;22.80;99.90
60727;DHT22;46577;49.004;12.120;2022-08-19T06:04:08;22.90;99.90
60727;DHT22;46577;49.004;12.120;2022-08-19T06:06:35;22.90;99.90
60727;DHT22;46577;49.004;12.120;2022-08-19T06:09:02;22.90;99.90
60727;DHT22;46577;49.004;12.120;2022-08-19T06:11:46;23.10;99.90
60727;DHT22;46577;49.004;12.120;2022-08-19T06:14:16;23.10;99.90
60727;DHT22;46577;49.004;12.120;2022-08-19T06:16:42;23.20;99.90
60727;DHT22;46577;49.004;12.120;2022-08-19T06:19:15;23.30;99.90
60727;DHT22;46577;49.004;12.120;2022-08-19T06:21:44;23.30;99.90
60727;DHT22;46577;49.004;12.120;2022-08-19T06:24:14;23.30;99.90
60727;DHT22;46577;49.004;12.120;2022-08-19T06:26:42;23.20;99.90
60727;DHT22;46577;49.004;12.120;2022-08-19T06:29:12;23.20;99.90
60727;DHT22;46577;49.004;12.120;2022-08-19T06:31:42;23.20;99.90
60727;DHT22;46577;49.004;12.120;2022-08-19T06:34:08;23.10;99.90
60727;DHT22;46577;49.004;12.120;2022-08-19T06:36:37;23.00;99.90
60727;DHT22;46577;49.004;12.120;2022-08-19T06:39:05;23.00;99.90
60727;DHT22;46577;49.004;12.120;2022-08-19T06:41:35;23.00;99.90
60727;DHT22;46577;49.004;12.120;2022-08-19T06:44:01;22.90;99.90
60727;DHT22;46577;49.004;12.120;2022-08-19T06:46:27;22.90;99.90
60727;DHT22;46577;49.004;12.120;2022-08-19T06:48:54;22.90;99.90
60727;DHT22;46577;49.004;12.120;2022-08-19T06:51:20;22.90;99.90
60727;DHT22;46577;49.004;12.120;2022-08-19T06:53:48;22.90;99.90
60727;DHT22;46577;49.004;12.120;2022-08-19T06:56:16;22.90;99.90
60727;DHT22;46577;49.004;12.120;2022-08-19T06:58:42;23.00;99.90
60727;DHT22;46577;49.004;12.120;2022-08-19T07:01:08;23.00;99.90
60727;DHT22;46577;49.004;12.120;2022-08-19T07:03:35;22.90;99.90
60727;DHT22;46577;49.004;12.120;2022-08-19T07:06:09;22.90;99.90
60727;DHT22;46577;49.004;12.120;2022-08-19T07:08:37;22.90;99.90
60727;DHT22;46577;49.004;12.120;2022-08-19T07:11:10;22.80;99.90
60727;DHT22;46577;49.004;12.120;2022-08-19T07:13:37;22.70;99.90
60727;DHT22;46577;49.004;12.120;2022-08-19T07:16:07;22.60;99.90
60727;DHT22;46577;49.004;12.120;2022-08-19T07:18:34;22.60;99.90
60727;DHT22;46577;49.004;12.120;2022-08-19T07:23:30;22.60;99.90
60727;DHT22;46577;49.004;12.120;2022-08-19T07:25:55;22.70;99.90
60727;DHT22;46577;49.004;12.120;2022-08-19T07:28:22;22.80;99.90
60727;DHT22;46577;49.004;12.120;2022-08-19T07:30:48;22.80;99.90
60727;DHT22;46577;49.004;12.120;2022-08-19T07:33:15;22.80;99.90
60727;DHT22;46577;49.004;12.120;2022-08-19T07:35:42;22.80;99.90
60727;DHT22;46577;49.004;12.120;2022-08-19T07:38:09;22.80;99.90
60727;DHT22;46577;49.004;12.120;2022-08-19T07:40:35;22.80;99.90
60727;DHT22;46577;49.004;12.120;2022-08-19T07:43:02;22.80;99.90
60727;DHT22;46577;49.004;12.120;2022-08-19T07:45:27;22.80;99.90
60727;DHT22;46577;49.004;12.120;2022-08-19T07:47:54;22.90;99.90
60727;DHT22;46577;49.004;12.120;2022-08-19T07:50:21;22.90;99.90
60727;DHT22;46577;49.004;12.120;2022-08-19T07:52:48;22.90;99.90
60727;DHT22;46577;49.004;12.120;2022-08-19T07:55:17;23.10;99.90
60727;DHT22;46577;49.004;12.120;2022-08-19T07:57:43;23.20;99.90
60727;DHT22;46577;49.004;12.120;2022-08-19T08:00:09;23.30;99.90
60727;DHT22;46577;49.004;12.120;2022-08-19T08:02:35;23.40;99.90
60727;DHT22;46577;49.004;12.120;2022-08-19T08:05:00;23.40;99.90
60727;DHT22;46577;49.004;12.120;2022-08-19T08:07:44;23.60;99.90
60727;DHT22;46577;49.004;12.120;2022-08-19T08:10:28;23.70;99.90
60727;DHT22;46577;49.004;12.120;2022-08-19T08:12:54;23.80;99.90
60727;DHT22;46577;49.004;12.120;2022-08-19T08:15:21;24.00;99.80
60727;DHT22;46577;49.004;12.120;2022-08-19T08:17:46;24.00;99.20
60727;DHT22;46577;49.004;12.120;2022-08-19T08:20:14;24.00;99.10
60727;DHT22;46577;49.004;12.120;2022-08-19T08:22:44;24.10;98.90
60727;DHT22;46577;49.004;12.120;2022-08-19T08:25:29;24.10;98.60
60727;DHT22;46577;49.004;12.120;2022-08-19T08:27:56;24.20;98.60
60727;DHT22;46577;49.004;12.120;2022-08-19T08:30:26;24.30;98.30
60727;DHT22;46577;49.004;12.120;2022-08-19T08:32:53;24.40;98.10
60727;DHT22;46577;49.004;12.120;2022-08-19T08:35:21;24.70;97.80
60727;DHT22;46577;49.004;12.120;2022-08-19T08:37:48;25.00;97.30
60727;DHT22;46577;49.004;12.120;2022-08-19T08:43:24;26.00;95.20
60727;DHT22;46577;49.004;12.120;2022-08-19T08:46:01;26.50;93.40
60727;DHT22;46577;49.004;12.120;2022-08-19T08:48:50;26.60;93.00
60727;DHT22;46577;49.004;12.120;2022-08-19T08:51:24;26.70;91.90
60727;DHT22;46577;49.004;12.120;2022-08-19T08:53:52;26.70;91.40
60727;DHT22;46577;49.004;12.120;2022-08-19T08:56:19;26.90;91.10
60727;DHT22;46577;49.004;12.120;2022-08-19T08:58:53;27.00;91.10
60727;DHT22;46577;49.004;12.120;2022-08-19T09:01:20;27.20;90.10
60727;DHT22;46577;49.004;12.120;2022-08-19T09:03:46;27.30;90.00
60727;DHT22;46577;49.004;12.120;2022-08-19T09:06:38;27.40;89.00
60727;DHT22;46577;49.004;12.120;2022-08-19T09:17:00;26.70;89.50
60727;DHT22;46577;49.004;12.120;2022-08-19T09:19:29;26.60;90.00
60727;DHT22;46577;49.004;12.120;2022-08-19T09:21:55;26.50;90.10
60727;DHT22;46577;49.004;12.120;2022-08-19T09:24:21;26.50;90.20
60727;DHT22;46577;49.004;12.120;2022-08-19T09:26:46;26.40;90.10
60727;DHT22;46577;49.004;12.120;2022-08-19T09:29:12;26.30;90.60
60727;DHT22;46577;49.004;12.120;2022-08-19T09:31:38;26.20;90.60
60727;DHT22;46577;49.004;12.120;2022-08-19T09:34:04;26.10;91.10
60727;DHT22;46577;49.004;12.120;2022-08-19T09:36:30;26.10;91.10
60727;DHT22;46577;49.004;12.120;2022-08-19T09:39:04;26.10;91.00
60727;DHT22;46577;49.004;12.120;2022-08-19T09:41:31;26.00;91.60
60727;DHT22;46577;49.004;12.120;2022-08-19T09:43:58;25.80;91.90
60727;DHT22;46577;49.004;12.120;2022-08-19T09:46:25;25.80;92.00
60727;DHT22;46577;49.004;12.120;2022-08-19T09:48:52;25.70;92.40
60727;DHT22;46577;49.004;12.120;2022-08-19T09:51:21;25.70;92.40
60727;DHT22;46577;49.004;12.120;2022-08-19T09:53:48;25.70;92.30
60727;DHT22;46577;49.004;12.120;2022-08-19T09:56:20;25.60;92.50
60727;DHT22;46577;49.004;12.120;2022-08-19T09:58:46;25.60;92.60
60727;DHT22;46577;49.004;12.120;2022-08-19T10:01:18;25.50;92.90
60727;DHT22;46577;49.004;12.120;2022-08-19T10:03:48;25.40;92.80
60727;DHT22;46577;49.004;12.120;2022-08-19T10:06:14;25.40;93.00
60727;DHT22;46577;49.004;12.120;2022-08-19T10:08:40;25.30;92.90
60727;DHT22;46577;49.004;12.120;2022-08-19T10:11:05;25.10;93.40
60727;DHT22;46577;49.004;12.120;2022-08-19T10:13:32;25.00;93.70
60727;DHT22;46577;49.004;12.120;2022-08-19T10:16:08;25.00;93.80
60727;DHT22;46577;49.004;12.120;2022-08-19T10:18:36;25.10;93.60
60727;DHT22;46577;49.004;12.120;2022-08-19T10:21:10;25.20;93.60
60727;DHT22;46577;49.004;12.120;2022-08-19T10:23:38;25.40;93.10
60727;DHT22;46577;49.004;12.120;2022-08-19T10:26:05;25.50;92.40
60727;DHT22;46577;49.004;12.120;2022-08-19T10:28:32;25.70;92.10
60727;DHT22;46577;49.004;12.120;2022-08-19T10:31:01;25.90;91.90
60727;DHT22;46577;49.004;12.120;2022-08-19T10:33:28;26.30;91.00
60727;DHT22;46577;49.004;12.120;2022-08-19T10:36:07;26.70;90.50
60727;DHT22;46577;49.004;12.120;2022-08-19T10:38:34;27.20;89.10
60727;DHT22;46577;49.004;12.120;2022-08-19T10:41:22;27.50;86.50
60727;DHT22;46577;49.004;12.120;2022-08-19T10:43:51;27.50;85.80
60727;DHT22;46577;49.004;12.120;2022-08-19T10:46:18;27.40;86.10
60727;DHT22;46577;49.004;12.120;2022-08-19T10:48:44;27.30;85.60
60727;DHT22;46577;49.004;12.120;2022-08-19T10:51:11;27.20;86.20
60727;DHT22;46577;49.004;12.120;2022-08-19T10:53:56;27.30;85.80
60727;DHT22;46577;49.004;12.120;2022-08-19T10:56:22;27.30;85.40
60727;DHT22;46577;49.004;12.120;2022-08-19T10:59:06;27.20;85.70
60727;DHT22;46577;49.004;12.120;2022-08-19T11:01:33;27.30;85.90
60727;DHT22;46577;49.004;12.120;2022-08-19T11:04:03;27.40;85.70
60727;DHT22;46577;49.004;12.120;2022-08-19T11:06:31;27.20;85.20
60727;DHT22;46577;49.004;12.120;2022-08-19T11:08:58;27.20;86.80
60727;DHT22;46577;49.004;12.120;2022-08-19T11:11:25;27.10;86.80
60727;DHT22;46577;49.004;12.120;2022-08-19T11:13:51;27.10;86.30
60727;DHT22;46577;49.004;12.120;2022-08-19T11:16:20;26.80;86.80
60727;DHT22;46577;49.004;12.120;2022-08-19T11:18:50;26.70;87.70
60727;DHT22;46577;49.004;12.120;2022-08-19T11:21:21;26.50;87.30
60727;DHT22;46577;49.004;12.120;2022-08-19T11:23:50;26.30;88.70
60727;DHT22;46577;49.004;12.120;2022-08-19T11:26:17;26.10;89.20
60727;DHT22;46577;49.004;12.120;2022-08-19T11:28:43;26.00;90.10
60727;DHT22;46577;49.004;12.120;2022-08-19T11:31:21;25.80;90.30
60727;DHT22;46577;49.004;12.120;2022-08-19T11:33:47;25.50;93.10
60727;DHT22;46577;49.004;12.120;2022-08-19T11:36:16;25.50;93.30
60727;DHT22;46577;49.004;12.120;2022-08-19T11:38:43;25.30;94.50
60727;DHT22;46577;49.004;12.120;2022-08-19T11:41:08;25.10;95.90
60727;DHT22;46577;49.004;12.120;2022-08-19T11:43:36;25.10;96.70
60727;DHT22;46577;49.004;12.120;2022-08-19T11:46:06;25.10;97.00
60727;DHT22;46577;49.004;12.120;2022-08-19T11:48:33;25.00;98.10
60727;DHT22;46577;49.004;12.120;2022-08-19T11:50:59;24.80;98.20
60727;DHT22;46577;49.004;12.120;2022-08-19T11:53:24;24.80;98.70
60727;DHT22;46577;49.004;12.120;2022-08-19T11:55:53;24.70;99.00
60727;DHT22;46577;49.004;12.120;2022-08-19T11:58:21;24.50;99.30
60727;DHT22;46577;49.004;12.120;2022-08-19T12:00:47;24.30;99.50
60727;DHT22;46577;49.004;12.120;2022-08-19T12:03:13;24.20;99.90
60727;DHT22;46577;49.004;12.120;2022-08-19T12:05:40;24.10;99.90
60727;DHT22;46577;49.004;12.120;2022-08-19T12:08:06;24.00;99.90
60727;DHT22;46577;49.004;12.120;2022-08-19T12:10:33;24.00;99.90
60727;DHT22;46577;49.004;12.120;2022-08-19T12:12:59;23.90;99.90
60727;DHT22;46577;49.004;12.120;2022-08-19T12:15:25;23.90;99.90
60727;DHT22;46577;49.004;12.120;2022-08-19T12:17:55;24.00;99.90
60727;DHT22;46577;49.004;12.120;2022-08-19T12:20:23;24.00;99.90
60727;DHT22;46577;49.004;12.120;2022-08-19T12:22:49;24.10;99.90
60727;DHT22;46577;49.004;12.120;2022-08-19T12:25:16;24.30;99.90
60727;DHT22;46577;49.004;12.120;2022-08-19T12:27:42;24.50;99.90
60727;DHT22;46577;49.004;12.120;2022-08-19T12:30:10;24.50;99.90
60727;DHT22;46577;49.004;12.120;2022-08-19T12:32:36;24.60;99.90
60727;DHT22;46577;49.004;12.120;2022-08-19T12:35:02;24.70;99.90
60727;DHT22;46577;49.004;12.120;2022-08-19T12:37:28;24.90;99.90
60727;DHT22;46577;49.004;12.120;2022-08-19T12:39:56;25.10;99.90
60727;DHT22;46577;49.004;12.120;2022-08-19T12:42:22;25.40;99.90
60727;DHT22;46577;49.004;12.120;2022-08-19T12:44:48;25.50;99.70
60727;DHT22;46577;49.004;12.120;2022-08-19T12:47:14;25.60;98.80
60727;DHT22;46577;49.004;12.120;2022-08-19T12:49:40;25.50;98.50
60727;DHT22;46577;49.004;12.120;2022-08-19T12:52:07;25.60;98.10
60727;DHT22;46577;49.004;12.120;2022-08-19T12:54:34;25.60;97.20
60727;DHT22;46577;49.004;12.120;2022-08-19T12:57:00;25.60;97.50
60727;DHT22;46577;49.004;12.120;2022-08-19T12:59:29;25.60;97.50
60727;DHT22;46577;49.004;12.120;2022-08-19T13:01:55;25.50;97.50
60727;DHT22;46577;49.004;12.120;2022-08-19T13:04:20;25.50;97.70
60727;DHT22;46577;49.004;12.120;2022-08-19T13:06:46;25.40;97.80
60727;DHT22;46577;49.004;12.120;2022-08-19T13:09:12;25.20;98.10
60727;DHT22;46577;49.004;12.120;2022-08-19T13:11:37;25.40;98.30
60727;DHT22;46577;49.004;12.120;2022-08-19T13:14:04;25.40;98.10
60727;DHT22;46577;49.004;12.120;2022-08-19T13:16:30;25.50;98.00
60727;DHT22;46577;49.004;12.120;2022-08-19T13:18:57;25.70;98.10
60727;DHT22;46577;49.004;12.120;2022-08-19T13:21:26;25.90;97.60
60727;DHT22;46577;49.004;12.120;2022-08-19T13:23:53;26.00;97.00
60727;DHT22;46577;49.004;12.120;2022-08-19T13:26:20;26.10;96.80
60727;DHT22;46577;49.004;12.120;2022-08-19T13:28:46;26.30;97.00
60727;DHT22;46577;49.004;12.120;2022-08-19T13:31:33;26.50;96.70
60727;DHT22;46577;49.004;12.120;2022-08-19T13:34:25;26.90;95.90
60727;DHT22;46577;49.004;12.120;2022-08-19T13:36:52;27.40;95.60
60727;DHT22;46577;49.004;12.120;2022-08-19T13:39:18;27.70;94.20
60727;DHT22;46577;49.004;12.120;2022-08-19T13:41:45;28.00;94.00
60727;DHT22;46577;49.004;12.120;2022-08-19T13:44:16;28.00;93.50
60727;DHT22;46577;49.004;12.120;2022-08-19T13:46:44;28.00;94.00
60727;DHT22;46577;49.004;12.120;2022-08-19T13:49:12;28.40;94.00
60727;DHT22;46577;49.004;12.120;2022-08-19T13:51:38;28.80;92.40
60727;DHT22;46577;49.004;12.120;2022-08-19T13:54:06;29.40;92.30
60727;DHT22;46577;49.004;12.120;2022-08-19T13:56:32;29.80;90.40
60727;DHT22;46577;49.004;12.120;2022-08-19T13:58:57;30.10;87.50
60727;DHT22;46577;49.004;12.120;2022-08-19T14:01:24;30.10;86.90
60727;DHT22;46577;49.004;12.120;2022-08-19T14:03:50;29.90;86.70
60727;DHT22;46577;49.004;12.120;2022-08-19T14:06:15;29.80;85.60
60727;DHT22;46577;49.004;12.120;2022-08-19T14:08:42;29.70;85.00
60727;DHT22;46577;49.004;12.120;2022-08-19T14:11:08;29.80;84.70
60727;DHT22;46577;49.004;12.120;2022-08-19T14:13:34;29.90;84.70
60727;DHT22;46577;49.004;12.120;2022-08-19T14:16:00;29.90;85.50
60727;DHT22;46577;49.004;12.120;2022-08-19T14:18:26;30.00;83.40
60727;DHT22;46577;49.004;12.120;2022-08-19T14:20:52;29.90;84.40
60727;DHT22;46577;49.004;12.120;2022-08-19T14:23:18;29.80;85.00
60727;DHT22;46577;49.004;12.120;2022-08-19T14:25:44;29.70;83.90
60727;DHT22;46577;49.004;12.120;2022-08-19T14:28:09;29.60;82.50
60727;DHT22;46577;49.004;12.120;2022-08-19T14:30:36;29.40;84.10
60727;DHT22;46577;49.004;12.120;2022-08-19T14:33:04;29.10;84.10
60727;DHT22;46577;49.004;12.120;2022-08-19T14:35:32;28.70;86.60
60727;DHT22;46577;49.004;12.120;2022-08-19T14:38:05;28.60;88.10
60727;DHT22;46577;49.004;12.120;2022-08-19T14:40:32;28.20;88.70
60727;DHT22;46577;49.004;12.120;2022-08-19T14:43:01;28.00;89.00
60727;DHT22;46577;49.004;12.120;2022-08-19T14:45:31;27.80;89.00
60727;DHT22;46577;49.004;12.120;2022-08-19T14:47:58;27.60;90.00
60727;DHT22;46577;49.004;12.120;2022-08-19T14:50:25;27.50;90.40
60727;DHT22;46577;49.004;12.120;2022-08-19T14:52:58;27.40;90.70
60727;DHT22;46577;49.004;12.120;2022-08-19T14:55:25;27.30;91.20
60727;DHT22;46577;49.004;12.120;2022-08-19T14:57:51;27.30;90.90
60727;DHT22;46577;49.004;12.120;2022-08-19T15:00:17;27.30;90.30
60727;DHT22;46577;49.004;12.120;2022-08-19T15:02:43;27.30;90.50
60727;DHT22;46577;49.004;12.120;2022-08-19T15:05:12;27.30;90.20
60727;DHT22;46577;49.004;12.120;2022-08-19T15:07:38;27.40;90.00
60727;DHT22;46577;49.004;12.120;2022-08-19T15:10:05;27.50;90.70
60727;DHT22;46577;49.004;12.120;2022-08-19T15:12:35;27.50;88.20
60727;DHT22;46577;49.004;12.120;2022-08-19T15:15:01;27.40;89.50
60727;DHT22;46577;49.004;12.120;2022-08-19T15:17:26;27.30;89.10
60727;DHT22;46577;49.004;12.120;2022-08-19T15:19:52;27.00;90.20
60727;DHT22;46577;49.004;12.120;2022-08-19T15:22:18;26.90;90.30
60727;DHT22;46577;49.004;12.120;2022-08-19T15:24:43;26.60;90.10
60727;DHT22;46577;49.004;12.120;2022-08-19T15:27:12;26.40;90.60
60727;DHT22;46577;49.004;12.120;2022-08-19T15:29:38;26.20;90.70
60727;DHT22;46577;49.004;12.120;2022-08-19T15:32:06;26.00;91.00
60727;DHT22;46577;49.004;12.120;2022-08-19T15:34:33;25.80;91.70